sensor_id;sensor_type;location;lat;lon;timestamp;P1;durP1;ratioP1;P2;durP2;ratioP2
60318;SDS011;46163;52.306;5.634;2023-07-24T00:00:27;3.15;;;2.78;;
60318;SDS011;46163;52.306;5.634;2023-07-24T00:02:53;3.80;;;2.90;;
60318;SDS011;46163;52.306;5.634;2023-07-24T00:05:19;4.50;;;2.78;;
60318;SDS011;46163;52.306;5.634;2023-07-24T00:07:44;3.10;;;2.80;;
60318;SDS011;46163;52.306;5.634;2023-07-24T00:10:10;3.17;;;2.70;;
60318;SDS011;46163;52.306;5.634;2023-07-24T00:12:35;3.55;;;2.83;;
60318;SDS011;46163;52.306;5.634;2023-07-24T00:15:02;2.92;;;2.60;;
60318;SDS011;46163;52.306;5.634;2023-07-24T00:17:28;4.32;;;3.58;;
60318;SDS011;46163;52.306;5.634;2023-07-24T00:19:54;3.15;;;2.83;;
60318;SDS011;46163;52.306;5.634;2023-07-24T00:22:20;2.92;;;2.72;;
60318;SDS011;46163;52.306;5.634;2023-07-24T00:24:45;4.05;;;2.95;;
60318;SDS011;46163;52.306;5.634;2023-07-24T00:27:10;3.38;;;3.08;;
60318;SDS011;46163;52.306;5.634;2023-07-24T00:29:36;5.13;;;3.15;;
60318;SDS011;46163;52.306;5.634;2023-07-24T00:32:04;4.75;;;3.10;;
60318;SDS011;46163;52.306;5.634;2023-07-24T00:34:30;4.95;;;3.10;;
60318;SDS011;46163;52.306;5.634;2023-07-24T00:36:55;3.28;;;2.67;;
60318;SDS011;46163;52.306;5.634;2023-07-24T00:39:22;4.15;;;2.88;;
60318;SDS011;46163;52.306;5.634;2023-07-24T00:41:48;2.88;;;2.58;;
60318;SDS011;46163;52.306;5.634;2023-07-24T00:44:14;3.08;;;2.70;;
60318;SDS011;46163;52.306;5.634;2023-07-24T00:46:39;3.47;;;2.90;;
60318;SDS011;46163;52.306;5.634;2023-07-24T00:49:05;2.97;;;2.67;;
60318;SDS011;46163;52.306;5.634;2023-07-24T00:51:31;2.97;;;2.70;;
60318;SDS011;46163;52.306;5.634;2023-07-24T00:53:59;3.50;;;3.20;;
60318;SDS011;46163;52.306;5.634;2023-07-24T00:56:26;3.63;;;2.70;;
60318;SDS011;46163;52.306;5.634;2023-07-24T00:58:55;2.78;;;2.58;;
60318;SDS011;46163;52.306;5.634;2023-07-24T01:01:22;3.28;;;2.67;;
60318;SDS011;46163;52.306;5.634;2023-07-24T01:03:48;3.63;;;2.90;;
60318;SDS011;46163;52.306;5.634;2023-07-24T01:06:14;3.20;;;2.88;;
60318;SDS011;46163;52.306;5.634;2023-07-24T01:08:42;3.15;;;2.83;;
60318;SDS011;46163;52.306;5.634;2023-07-24T01:13:51;3.25;;;2.95;;
60318;SDS011;46163;52.306;5.634;2023-07-24T01:16:22;2.90;;;2.70;;
60318;SDS011;46163;52.306;5.634;2023-07-24T01:18:54;3.38;;;3.00;;
60318;SDS011;46163;52.306;5.634;2023-07-24T01:21:25;2.67;;;2.45;;
60318;SDS011;46163;52.306;5.634;2023-07-24T01:23:59;2.63;;;2.42;;
60318;SDS011;46163;52.306;5.634;2023-07-24T01:26:39;5.18;;;3.10;;
60318;SDS011;46163;52.306;5.634;2023-07-24T01:29:05;3.63;;;2.70;;
60318;SDS011;46163;52.306;5.634;2023-07-24T01:31:31;3.30;;;3.00;;
60318;SDS011;46163;52.306;5.634;2023-07-24T01:33:56;3.22;;;2.92;;
60318;SDS011;46163;52.306;5.634;2023-07-24T01:36:27;3.00;;;2.70;;
60318;SDS011;46163;52.306;5.634;2023-07-24T01:39:05;3.20;;;2.90;;
60318;SDS011;46163;52.306;5.634;2023-07-24T01:41:32;3.30;;;3.00;;
60318;SDS011;46163;52.306;5.634;2023-07-24T01:43:59;3.05;;;2.75;;
60318;SDS011;46163;52.306;5.634;2023-07-24T01:46:25;4.63;;;3.38;;
60318;SDS011;46163;52.306;5.634;2023-07-24T01:48:50;4.05;;;3.08;;
60318;SDS011;46163;52.306;5.634;2023-07-24T01:51:17;3.83;;;3.30;;
60318;SDS011;46163;52.306;5.634;2023-07-24T01:53:43;3.13;;;2.83;;
60318;SDS011;46163;52.306;5.634;2023-07-24T01:56:08;3.78;;;2.78;;
60318;SDS011;46163;52.306;5.634;2023-07-24T01:58:34;5.18;;;3.00;;
60318;SDS011;46163;52.306;5.634;2023-07-24T02:00:59;3.28;;;2.92;;
60318;SDS011;46163;52.306;5.634;2023-07-24T02:03:24;3.90;;;3.15;;
60318;SDS011;46163;52.306;5.634;2023-07-24T02:05:50;3.55;;;3.25;;
60318;SDS011;46163;52.306;5.634;2023-07-24T02:08:16;2.67;;;2.47;;
60318;SDS011;46163;52.306;5.634;2023-07-24T02:10:42;2.95;;;2.67;;
60318;SDS011;46163;52.306;5.634;2023-07-24T02:13:07;3.20;;;2.88;;
60318;SDS011;46163;52.306;5.634;2023-07-24T02:15:34;2.90;;;2.63;;
60318;SDS011;46163;52.306;5.634;2023-07-24T02:18:02;3.33;;;3.03;;
60318;SDS011;46163;52.306;5.634;2023-07-24T02:22:55;3.58;;;3.10;;
60318;SDS011;46163;52.306;5.634;2023-07-24T02:25:23;2.97;;;2.67;;
60318;SDS011;46163;52.306;5.634;2023-07-24T02:27:48;3.95;;;3.33;;
60318;SDS011;46163;52.306;5.634;2023-07-24T02:30:13;3.88;;;3.50;;
60318;SDS011;46163;52.306;5.634;2023-07-24T02:32:39;5.18;;;3.35;;
60318;SDS011;46163;52.306;5.634;2023-07-24T02:35:04;3.20;;;2.90;;
60318;SDS011;46163;52.306;5.634;2023-07-24T02:37:30;3.47;;;3.10;;
60318;SDS011;46163;52.306;5.634;2023-07-24T02:39:56;4.75;;;3.67;;
60318;SDS011;46163;52.306;5.634;2023-07-24T02:42:21;4.68;;;3.45;;
60318;SDS011;46163;52.306;5.634;2023-07-24T02:44:47;4.05;;;3.13;;
60318;SDS011;46163;52.306;5.634;2023-07-24T02:47:12;6.20;;;3.67;;
60318;SDS011;46163;52.306;5.634;2023-07-24T02:49:37;4.53;;;3.35;;
60318;SDS011;46163;52.306;5.634;2023-07-24T02:52:03;4.57;;;3.17;;
60318;SDS011;46163;52.306;5.634;2023-07-24T02:54:29;3.28;;;2.90;;
60318;SDS011;46163;52.306;5.634;2023-07-24T02:56:54;3.47;;;3.17;;
60318;SDS011;46163;52.306;5.634;2023-07-24T02:59:20;3.85;;;3.28;;
60318;SDS011;46163;52.306;5.634;2023-07-24T03:01:47;3.97;;;3.10;;
60318;SDS011;46163;52.306;5.634;2023-07-24T03:04:15;3.50;;;3.20;;
60318;SDS011;46163;52.306;5.634;2023-07-24T03:06:40;5.65;;;3.30;;
60318;SDS011;46163;52.306;5.634;2023-07-24T03:09:06;4.05;;;3.40;;
60318;SDS011;46163;52.306;5.634;2023-07-24T03:11:32;3.25;;;2.95;;
60318;SDS011;46163;52.306;5.634;2023-07-24T03:13:57;3.55;;;3.25;;
60318;SDS011;46163;52.306;5.634;2023-07-24T03:16:22;4.40;;;3.17;;
60318;SDS011;46163;52.306;5.634;2023-07-24T03:18:48;3.40;;;3.10;;
60318;SDS011;46163;52.306;5.634;2023-07-24T03:21:13;3.80;;;3.40;;
60318;SDS011;46163;52.306;5.634;2023-07-24T03:23:39;4.28;;;3.35;;
60318;SDS011;46163;52.306;5.634;2023-07-24T03:26:04;3.53;;;3.22;;
60318;SDS011;46163;52.306;5.634;2023-07-24T03:28:30;6.43;;;3.78;;
60318;SDS011;46163;52.306;5.634;2023-07-24T03:30:55;3.63;;;3.33;;
60318;SDS011;46163;52.306;5.634;2023-07-24T03:33:21;4.28;;;3.80;;
60318;SDS011;46163;52.306;5.634;2023-07-24T03:35:46;3.92;;;3.53;;
60318;SDS011;46163;52.306;5.634;2023-07-24T03:38:12;3.50;;;3.20;;
60318;SDS011;46163;52.306;5.634;2023-07-24T03:40:37;4.28;;;3.85;;
60318;SDS011;46163;52.306;5.634;2023-07-24T03:43:03;4.68;;;4.28;;
60318;SDS011;46163;52.306;5.634;2023-07-24T03:45:28;4.00;;;3.25;;
60318;SDS011;46163;52.306;5.634;2023-07-24T03:47:54;4.32;;;3.92;;
60318;SDS011;46163;52.306;5.634;2023-07-24T03:50:19;5.80;;;3.72;;
60318;SDS011;46163;52.306;5.634;2023-07-24T03:52:45;4.18;;;3.50;;
60318;SDS011;46163;52.306;5.634;2023-07-24T03:55:10;4.13;;;3.72;;
60318;SDS011;46163;52.306;5.634;2023-07-24T03:57:36;4.90;;;3.75;;
60318;SDS011;46163;52.306;5.634;2023-07-24T04:00:02;4.28;;;3.78;;
60318;SDS011;46163;52.306;5.634;2023-07-24T04:02:27;4.18;;;3.67;;
60318;SDS011;46163;52.306;5.634;2023-07-24T04:04:53;4.35;;;3.83;;
60318;SDS011;46163;52.306;5.634;2023-07-24T04:07:23;4.38;;;3.97;;
60318;SDS011;46163;52.306;5.634;2023-07-24T04:09:50;4.43;;;4.03;;
60318;SDS011;46163;52.306;5.634;2023-07-24T04:12:21;4.82;;;4.22;;
60318;SDS011;46163;52.306;5.634;2023-07-24T04:14:47;4.53;;;4.00;;
60318;SDS011;46163;52.306;5.634;2023-07-24T04:17:14;3.92;;;3.53;;
60318;SDS011;46163;52.306;5.634;2023-07-24T04:19:40;4.18;;;3.78;;
60318;SDS011;46163;52.306;5.634;2023-07-24T04:22:05;4.28;;;3.85;;
60318;SDS011;46163;52.306;5.634;2023-07-24T04:24:31;4.60;;;4.20;;
60318;SDS011;46163;52.306;5.634;2023-07-24T04:26:56;4.63;;;4.13;;
60318;SDS011;46163;52.306;5.634;2023-07-24T04:29:22;5.05;;;4.55;;
60318;SDS011;46163;52.306;5.634;2023-07-24T04:31:49;4.70;;;4.18;;
60318;SDS011;46163;52.306;5.634;2023-07-24T04:34:15;7.72;;;4.68;;
60318;SDS011;46163;52.306;5.634;2023-07-24T04:36:41;4.50;;;3.90;;
60318;SDS011;46163;52.306;5.634;2023-07-24T04:39:06;5.35;;;4.40;;
60318;SDS011;46163;52.306;5.634;2023-07-24T04:41:32;4.93;;;4.43;;
60318;SDS011;46163;52.306;5.634;2023-07-24T04:43:57;6.85;;;4.80;;
60318;SDS011;46163;52.306;5.634;2023-07-24T04:46:23;5.95;;;4.50;;
60318;SDS011;46163;52.306;5.634;2023-07-24T04:48:48;5.78;;;4.88;;
60318;SDS011;46163;52.306;5.634;2023-07-24T04:51:14;5.10;;;4.60;;
60318;SDS011;46163;52.306;5.634;2023-07-24T04:53:39;5.10;;;4.40;;
60318;SDS011;46163;52.306;5.634;2023-07-24T04:56:05;5.57;;;4.20;;
60318;SDS011;46163;52.306;5.634;2023-07-24T04:58:30;5.05;;;4.40;;
60318;SDS011;46163;52.306;5.634;2023-07-24T05:00:56;5.35;;;4.70;;
60318;SDS011;46163;52.306;5.634;2023-07-24T05:03:21;4.55;;;4.15;;
60318;SDS011;46163;52.306;5.634;2023-07-24T05:05:53;4.68;;;4.05;;
60318;SDS011;46163;52.306;5.634;2023-07-24T05:08:20;8.80;;;4.50;;
60318;SDS011;46163;52.306;5.634;2023-07-24T05:10:46;6.22;;;4.40;;
60318;SDS011;46163;52.306;5.634;2023-07-24T05:13:11;4.60;;;3.97;;
60318;SDS011;46163;52.306;5.634;2023-07-24T05:15:37;5.43;;;4.45;;
60318;SDS011;46163;52.306;5.634;2023-07-24T05:18:02;7.63;;;4.35;;
60318;SDS011;46163;52.306;5.634;2023-07-24T05:20:28;5.38;;;4.30;;
60318;SDS011;46163;52.306;5.634;2023-07-24T05:22:54;6.60;;;4.30;;
60318;SDS011;46163;52.306;5.634;2023-07-24T05:25:19;4.00;;;3.60;;
60318;SDS011;46163;52.306;5.634;2023-07-24T05:27:45;4.25;;;3.85;;
60318;SDS011;46163;52.306;5.634;2023-07-24T05:30:10;4.32;;;3.92;;
60318;SDS011;46163;52.306;5.634;2023-07-24T05:32:36;4.63;;;4.10;;
60318;SDS011;46163;52.306;5.634;2023-07-24T05:35:01;4.30;;;3.90;;
60318;SDS011;46163;52.306;5.634;2023-07-24T05:37:27;4.40;;;3.97;;
60318;SDS011;46163;52.306;5.634;2023-07-24T05:39:52;4.95;;;4.45;;
60318;SDS011;46163;52.306;5.634;2023-07-24T05:42:18;4.45;;;4.05;;
60318;SDS011;46163;52.306;5.634;2023-07-24T05:44:43;4.75;;;4.25;;
60318;SDS011;46163;52.306;5.634;2023-07-24T05:47:09;6.57;;;4.40;;
60318;SDS011;46163;52.306;5.634;2023-07-24T05:49:34;5.13;;;4.18;;
60318;SDS011;46163;52.306;5.634;2023-07-24T05:52:00;4.93;;;4.18;;
60318;SDS011;46163;52.306;5.634;2023-07-24T05:54:25;4.70;;;4.22;;
60318;SDS011;46163;52.306;5.634;2023-07-24T05:56:51;4.85;;;4.28;;
60318;SDS011;46163;52.306;5.634;2023-07-24T05:59:17;4.28;;;3.88;;
60318;SDS011;46163;52.306;5.634;2023-07-24T06:01:43;4.70;;;4.15;;
60318;SDS011;46163;52.306;5.634;2023-07-24T06:04:08;6.07;;;4.70;;
60318;SDS011;46163;52.306;5.634;2023-07-24T06:06:34;4.80;;;4.25;;
60318;SDS011;46163;52.306;5.634;2023-07-24T06:09:01;5.05;;;4.40;;
60318;SDS011;46163;52.306;5.634;2023-07-24T06:11:28;5.10;;;4.55;;
60318;SDS011;46163;52.306;5.634;2023-07-24T06:13:53;5.65;;;4.55;;
60318;SDS011;46163;52.306;5.634;2023-07-24T06:16:19;4.53;;;3.95;;
60318;SDS011;46163;52.306;5.634;2023-07-24T06:18:44;6.68;;;4.68;;
60318;SDS011;46163;52.306;5.634;2023-07-24T06:21:10;4.65;;;3.90;;
60318;SDS011;46163;52.306;5.634;2023-07-24T06:23:35;5.80;;;4.45;;
60318;SDS011;46163;52.306;5.634;2023-07-24T06:26:03;5.32;;;4.25;;
60318;SDS011;46163;52.306;5.634;2023-07-24T06:28:29;5.75;;;4.25;;
60318;SDS011;46163;52.306;5.634;2023-07-24T06:30:54;7.18;;;4.43;;
60318;SDS011;46163;52.306;5.634;2023-07-24T06:33:20;6.13;;;4.38;;
60318;SDS011;46163;52.306;5.634;2023-07-24T06:35:48;5.97;;;4.28;;
60318;SDS011;46163;52.306;5.634;2023-07-24T06:38:14;7.18;;;4.40;;
60318;SDS011;46163;52.306;5.634;2023-07-24T06:40:40;5.28;;;4.13;;
60318;SDS011;46163;52.306;5.634;2023-07-24T06:43:06;7.00;;;3.92;;
60318;SDS011;46163;52.306;5.634;2023-07-24T06:45:31;6.20;;;4.18;;
60318;SDS011;46163;52.306;5.634;2023-07-24T06:47:57;5.50;;;3.80;;
60318;SDS011;46163;52.306;5.634;2023-07-24T06:50:22;8.32;;;4.05;;
60318;SDS011;46163;52.306;5.634;2023-07-24T06:52:48;6.13;;;3.88;;
60318;SDS011;46163;52.306;5.634;2023-07-24T06:55:15;4.18;;;3.35;;
60318;SDS011;46163;52.306;5.634;2023-07-24T06:57:42;6.75;;;4.57;;
60318;SDS011;46163;52.306;5.634;2023-07-24T07:00:15;4.60;;;3.25;;
60318;SDS011;46163;52.306;5.634;2023-07-24T07:02:43;5.63;;;3.90;;
60318;SDS011;46163;52.306;5.634;2023-07-24T07:05:08;5.65;;;3.47;;
60318;SDS011;46163;52.306;5.634;2023-07-24T07:07:34;4.50;;;3.45;;
60318;SDS011;46163;52.306;5.634;2023-07-24T07:10:00;7.57;;;4.13;;
60318;SDS011;46163;52.306;5.634;2023-07-24T07:12:25;3.53;;;3.22;;
60318;SDS011;46163;52.306;5.634;2023-07-24T07:14:51;4.45;;;3.65;;
60318;SDS011;46163;52.306;5.634;2023-07-24T07:17:16;4.68;;;3.53;;
60318;SDS011;46163;52.306;5.634;2023-07-24T07:19:44;5.70;;;3.30;;
60318;SDS011;46163;52.306;5.634;2023-07-24T07:24:35;3.70;;;2.97;;
60318;SDS011;46163;52.306;5.634;2023-07-24T07:27:01;5.18;;;3.28;;
60318;SDS011;46163;52.306;5.634;2023-07-24T07:29:26;5.10;;;3.13;;
60318;SDS011;46163;52.306;5.634;2023-07-24T07:31:52;4.75;;;3.15;;
60318;SDS011;46163;52.306;5.634;2023-07-24T07:34:17;3.50;;;2.63;;
60318;SDS011;46163;52.306;5.634;2023-07-24T07:36:43;4.10;;;2.80;;
60318;SDS011;46163;52.306;5.634;2023-07-24T07:39:08;6.85;;;3.00;;
60318;SDS011;46163;52.306;5.634;2023-07-24T07:41:34;3.00;;;2.70;;
60318;SDS011;46163;52.306;5.634;2023-07-24T07:44:00;4.95;;;2.83;;
60318;SDS011;46163;52.306;5.634;2023-07-24T07:46:25;3.67;;;2.50;;
60318;SDS011;46163;52.306;5.634;2023-07-24T07:48:51;5.07;;;2.45;;
60318;SDS011;46163;52.306;5.634;2023-07-24T07:51:16;4.35;;;2.60;;
60318;SDS011;46163;52.306;5.634;2023-07-24T07:53:42;3.65;;;2.55;;
60318;SDS011;46163;52.306;5.634;2023-07-24T07:56:08;4.13;;;2.83;;
60318;SDS011;46163;52.306;5.634;2023-07-24T07:58:33;6.03;;;2.88;;
60318;SDS011;46163;52.306;5.634;2023-07-24T08:01:02;2.88;;;2.35;;
60318;SDS011;46163;52.306;5.634;2023-07-24T08:03:29;4.18;;;2.67;;
60318;SDS011;46163;52.306;5.634;2023-07-24T08:05:57;6.25;;;2.70;;
60318;SDS011;46163;52.306;5.634;2023-07-24T08:08:23;3.13;;;2.45;;
60318;SDS011;46163;52.306;5.634;2023-07-24T08:10:49;3.00;;;2.40;;
60318;SDS011;46163;52.306;5.634;2023-07-24T08:13:14;3.28;;;2.58;;
60318;SDS011;46163;52.306;5.634;2023-07-24T08:15:40;4.78;;;2.40;;
60318;SDS011;46163;52.306;5.634;2023-07-24T08:18:06;6.93;;;2.92;;
60318;SDS011;46163;52.306;5.634;2023-07-24T08:20:32;5.50;;;2.38;;
60318;SDS011;46163;52.306;5.634;2023-07-24T08:23:01;3.35;;;2.42;;
60318;SDS011;46163;52.306;5.634;2023-07-24T08:25:26;5.15;;;2.47;;
60318;SDS011;46163;52.306;5.634;2023-07-24T08:27:52;5.00;;;2.72;;
60318;SDS011;46163;52.306;5.634;2023-07-24T08:30:18;3.78;;;2.40;;
60318;SDS011;46163;52.306;5.634;2023-07-24T08:32:44;3.20;;;2.60;;
60318;SDS011;46163;52.306;5.634;2023-07-24T08:35:09;4.85;;;2.55;;
60318;SDS011;46163;52.306;5.634;2023-07-24T08:37:35;3.67;;;2.72;;
60318;SDS011;46163;52.306;5.634;2023-07-24T08:40:00;3.97;;;2.53;;
60318;SDS011;46163;52.306;5.634;2023-07-24T08:42:26;2.63;;;2.25;;
60318;SDS011;46163;52.306;5.634;2023-07-24T08:44:53;4.60;;;2.70;;
60318;SDS011;46163;52.306;5.634;2023-07-24T08:47:20;4.97;;;2.65;;
60318;SDS011;46163;52.306;5.634;2023-07-24T08:49:47;4.20;;;2.65;;
60318;SDS011;46163;52.306;5.634;2023-07-24T08:52:14;4.97;;;2.97;;
60318;SDS011;46163;52.306;5.634;2023-07-24T08:54:40;4.07;;;2.38;;
60318;SDS011;46163;52.306;5.634;2023-07-24T08:57:06;3.38;;;2.70;;
60318;SDS011;46163;52.306;5.634;2023-07-24T08:59:32;4.70;;;2.50;;
60318;SDS011;46163;52.306;5.634;2023-07-24T09:01:58;3.60;;;2.45;;
60318;SDS011;46163;52.306;5.634;2023-07-24T09:04:24;3.83;;;2.47;;
60318;SDS011;46163;52.306;5.634;2023-07-24T09:06:50;6.95;;;3.17;;
60318;SDS011;46163;52.306;5.634;2023-07-24T09:09:16;10.90;;;3.30;;
60318;SDS011;46163;52.306;5.634;2023-07-24T09:11:49;3.50;;;2.55;;
60318;SDS011;46163;52.306;5.634;2023-07-24T09:14:26;3.30;;;2.20;;
60318;SDS011;46163;52.306;5.634;2023-07-24T09:17:08;7.03;;;2.75;;
60318;SDS011;46163;52.306;5.634;2023-07-24T09:19:35;3.72;;;2.83;;
60318;SDS011;46163;52.306;5.634;2023-07-24T09:22:16;16.85;;;2.90;;
60318;SDS011;46163;52.306;5.634;2023-07-24T09:24:51;4.97;;;2.80;;
60318;SDS011;46163;52.306;5.634;2023-07-24T09:27:18;2.67;;;2.42;;
60318;SDS011;46163;52.306;5.634;2023-07-24T09:29:44;4.32;;;2.78;;
60318;SDS011;46163;52.306;5.634;2023-07-24T09:32:24;4.15;;;2.80;;
60318;SDS011;46163;52.306;5.634;2023-07-24T09:34:52;3.67;;;2.50;;
60318;SDS011;46163;52.306;5.634;2023-07-24T09:37:25;8.18;;;2.17;;
60318;SDS011;46163;52.306;5.634;2023-07-24T09:39:58;4.35;;;2.25;;
60318;SDS011;46163;52.306;5.634;2023-07-24T09:42:28;3.30;;;2.60;;
60318;SDS011;46163;52.306;5.634;2023-07-24T09:44:57;2.95;;;2.13;;
60318;SDS011;46163;52.306;5.634;2023-07-24T09:47:22;4.10;;;2.47;;
60318;SDS011;46163;52.306;5.634;2023-07-24T09:49:48;3.65;;;2.47;;
60318;SDS011;46163;52.306;5.634;2023-07-24T09:52:14;4.05;;;2.70;;
60318;SDS011;46163;52.306;5.634;2023-07-24T09:54:55;3.83;;;2.60;;
60318;SDS011;46163;52.306;5.634;2023-07-24T09:57:24;3.92;;;2.90;;
60318;SDS011;46163;52.306;5.634;2023-07-24T09:59:51;2.60;;;2.38;;
60318;SDS011;46163;52.306;5.634;2023-07-24T10:02:18;5.30;;;3.00;;
60318;SDS011;46163;52.306;5.634;2023-07-24T10:07:12;4.68;;;2.83;;
60318;SDS011;46163;52.306;5.634;2023-07-24T10:09:38;3.67;;;2.72;;
60318;SDS011;46163;52.306;5.634;2023-07-24T10:12:05;7.28;;;3.03;;
60318;SDS011;46163;52.306;5.634;2023-07-24T10:14:33;4.20;;;2.80;;
60318;SDS011;46163;52.306;5.634;2023-07-24T10:17:01;6.50;;;3.30;;
60318;SDS011;46163;52.306;5.634;2023-07-24T10:19:48;6.00;;;3.20;;
60318;SDS011;46163;52.306;5.634;2023-07-24T10:22:18;4.88;;;2.80;;
60318;SDS011;46163;52.306;5.634;2023-07-24T10:24:45;4.57;;;2.85;;
60318;SDS011;46163;52.306;5.634;2023-07-24T10:27:11;5.25;;;3.15;;
60318;SDS011;46163;52.306;5.634;2023-07-24T10:29:39;5.30;;;2.65;;
60318;SDS011;46163;52.306;5.634;2023-07-24T10:32:16;3.30;;;2.60;;
60318;SDS011;46163;52.306;5.634;2023-07-24T10:34:44;4.22;;;2.80;;
60318;SDS011;46163;52.306;5.634;2023-07-24T10:37:10;7.75;;;2.83;;
60318;SDS011;46163;52.306;5.634;2023-07-24T10:39:38;3.40;;;2.38;;
60318;SDS011;46163;52.306;5.634;2023-07-24T10:44:34;2.53;;;2.28;;
60318;SDS011;46163;52.306;5.634;2023-07-24T10:47:00;3.55;;;2.40;;
60318;SDS011;46163;52.306;5.634;2023-07-24T10:49:28;2.88;;;2.38;;
60318;SDS011;46163;52.306;5.634;2023-07-24T10:51:57;3.67;;;2.45;;
60318;SDS011;46163;52.306;5.634;2023-07-24T10:54:23;2.83;;;2.38;;
60318;SDS011;46163;52.306;5.634;2023-07-24T10:59:35;4.88;;;3.10;;
60318;SDS011;46163;52.306;5.634;2023-07-24T11:02:03;5.25;;;2.80;;
60318;SDS011;46163;52.306;5.634;2023-07-24T11:04:29;6.10;;;3.28;;
60318;SDS011;46163;52.306;5.634;2023-07-24T11:06:57;4.72;;;3.22;;
60318;SDS011;46163;52.306;5.634;2023-07-24T11:09:33;4.90;;;2.95;;
60318;SDS011;46163;52.306;5.634;2023-07-24T11:11:59;3.73;;;2.80;;
60318;SDS011;46163;52.306;5.634;2023-07-24T11:14:33;5.47;;;2.85;;
60318;SDS011;46163;52.306;5.634;2023-07-24T11:19:29;4.65;;;3.00;;
60318;SDS011;46163;52.306;5.634;2023-07-24T11:21:54;5.13;;;2.55;;
60318;SDS011;46163;52.306;5.634;2023-07-24T11:24:20;4.70;;;2.83;;
60318;SDS011;46163;52.306;5.634;2023-07-24T11:26:45;4.80;;;2.75;;
60318;SDS011;46163;52.306;5.634;2023-07-24T11:29:16;3.65;;;2.58;;
60318;SDS011;46163;52.306;5.634;2023-07-24T11:31:41;3.42;;;2.40;;
60318;SDS011;46163;52.306;5.634;2023-07-24T11:35:48;6.78;;;2.58;;
60318;SDS011;46163;52.306;5.634;2023-07-24T11:38:19;3.78;;;2.50;;
60318;SDS011;46163;52.306;5.634;2023-07-24T11:40:45;3.72;;;2.78;;
60318;SDS011;46163;52.306;5.634;2023-07-24T11:43:22;4.05;;;2.70;;
60318;SDS011;46163;52.306;5.634;2023-07-24T11:45:49;2.83;;;2.30;;
60318;SDS011;46163;52.306;5.634;2023-07-24T11:48:19;4.38;;;2.78;;
60318;SDS011;46163;52.306;5.634;2023-07-24T11:50:48;3.90;;;2.83;;
60318;SDS011;46163;52.306;5.634;2023-07-24T11:53:19;3.53;;;2.83;;
60318;SDS011;46163;52.306;5.634;2023-07-24T11:55:52;3.90;;;2.80;;
60318;SDS011;46163;52.306;5.634;2023-07-24T12:00:45;4.70;;;3.10;;
60318;SDS011;46163;52.306;5.634;2023-07-24T12:03:12;4.45;;;3.00;;
60318;SDS011;46163;52.306;5.634;2023-07-24T12:05:41;5.15;;;2.83;;
60318;SDS011;46163;52.306;5.634;2023-07-24T12:08:07;9.13;;;2.90;;
60318;SDS011;46163;52.306;5.634;2023-07-24T12:10:36;4.10;;;2.92;;
60318;SDS011;46163;52.306;5.634;2023-07-24T12:13:03;3.35;;;2.45;;
60318;SDS011;46163;52.306;5.634;2023-07-24T12:15:29;3.60;;;2.72;;
60318;SDS011;46163;52.306;5.634;2023-07-24T12:17:54;3.47;;;2.53;;
60318;SDS011;46163;52.306;5.634;2023-07-24T12:20:21;2.97;;;2.53;;
60318;SDS011;46163;52.306;5.634;2023-07-24T12:22:47;3.80;;;2.75;;
60318;SDS011;46163;52.306;5.634;2023-07-24T12:25:16;6.30;;;2.70;;
60318;SDS011;46163;52.306;5.634;2023-07-24T12:27:44;5.07;;;3.05;;
60318;SDS011;46163;52.306;5.634;2023-07-24T12:30:10;4.30;;;2.92;;
60318;SDS011;46163;52.306;5.634;2023-07-24T12:32:35;3.22;;;2.70;;
60318;SDS011;46163;52.306;5.634;2023-07-24T12:35:01;4.72;;;2.92;;
60318;SDS011;46163;52.306;5.634;2023-07-24T12:37:26;2.92;;;2.53;;
60318;SDS011;46163;52.306;5.634;2023-07-24T12:39:52;6.60;;;2.78;;
60318;SDS011;46163;52.306;5.634;2023-07-24T12:42:19;5.13;;;2.75;;
60318;SDS011;46163;52.306;5.634;2023-07-24T12:44:45;3.42;;;2.78;;
60318;SDS011;46163;52.306;5.634;2023-07-24T12:47:11;4.45;;;2.90;;
60318;SDS011;46163;52.306;5.634;2023-07-24T12:49:37;5.30;;;2.88;;
60318;SDS011;46163;52.306;5.634;2023-07-24T12:52:02;3.25;;;2.65;;
60318;SDS011;46163;52.306;5.634;2023-07-24T12:54:29;5.85;;;3.00;;
60318;SDS011;46163;52.306;5.634;2023-07-24T12:56:54;3.72;;;2.38;;
60318;SDS011;46163;52.306;5.634;2023-07-24T12:59:20;2.95;;;2.20;;
60318;SDS011;46163;52.306;5.634;2023-07-24T13:01:45;2.40;;;2.20;;
60318;SDS011;46163;52.306;5.634;2023-07-24T13:04:14;3.50;;;2.63;;
60318;SDS011;46163;52.306;5.634;2023-07-24T13:06:39;3.47;;;2.25;;
60318;SDS011;46163;52.306;5.634;2023-07-24T13:09:07;2.90;;;2.28;;
60318;SDS011;46163;52.306;5.634;2023-07-24T13:11:33;2.58;;;1.80;;
60318;SDS011;46163;52.306;5.634;2023-07-24T13:13:58;4.60;;;1.90;;
60318;SDS011;46163;52.306;5.634;2023-07-24T13:16:24;2.22;;;1.80;;
60318;SDS011;46163;52.306;5.634;2023-07-24T13:18:50;1.92;;;1.80;;
60318;SDS011;46163;52.306;5.634;2023-07-24T13:21:17;1.80;;;1.70;;
60318;SDS011;46163;52.306;5.634;2023-07-24T13:23:43;2.35;;;2.15;;
60318;SDS011;46163;52.306;5.634;2023-07-24T13:26:11;2.83;;;1.95;;
60318;SDS011;46163;52.306;5.634;2023-07-24T13:28:37;2.08;;;1.92;;
60318;SDS011;46163;52.306;5.634;2023-07-24T13:31:13;2.13;;;1.88;;
60318;SDS011;46163;52.306;5.634;2023-07-24T13:33:44;3.78;;;2.25;;
60318;SDS011;46163;52.306;5.634;2023-07-24T13:36:10;3.03;;;2.50;;
60318;SDS011;46163;52.306;5.634;2023-07-24T13:38:36;4.97;;;2.30;;
60318;SDS011;46163;52.306;5.634;2023-07-24T13:41:02;3.38;;;2.40;;
60318;SDS011;46163;52.306;5.634;2023-07-24T13:43:29;6.40;;;2.70;;
60318;SDS011;46163;52.306;5.634;2023-07-24T13:45:55;3.28;;;2.70;;
60318;SDS011;46163;52.306;5.634;2023-07-24T13:48:21;3.20;;;2.58;;
60318;SDS011;46163;52.306;5.634;2023-07-24T13:50:47;3.88;;;2.97;;
60318;SDS011;46163;52.306;5.634;2023-07-24T13:53:12;4.07;;;2.97;;
60318;SDS011;46163;52.306;5.634;2023-07-24T13:55:38;3.60;;;3.10;;
60318;SDS011;46163;52.306;5.634;2023-07-24T13:58:03;3.63;;;2.22;;
60318;SDS011;46163;52.306;5.634;2023-07-24T14:00:29;3.92;;;2.42;;
60318;SDS011;46163;52.306;5.634;2023-07-24T14:02:55;3.60;;;2.70;;
60318;SDS011;46163;52.306;5.634;2023-07-24T14:05:20;5.53;;;3.35;;
60318;SDS011;46163;52.306;5.634;2023-07-24T14:07:46;3.10;;;2.58;;
60318;SDS011;46163;52.306;5.634;2023-07-24T14:10:11;3.38;;;2.05;;
60318;SDS011;46163;52.306;5.634;2023-07-24T14:12:39;1.70;;;1.58;;
60318;SDS011;46163;52.306;5.634;2023-07-24T14:15:04;1.92;;;1.40;;
60318;SDS011;46163;52.306;5.634;2023-07-24T14:17:30;1.42;;;1.40;;
60318;SDS011;46163;52.306;5.634;2023-07-24T14:19:56;2.50;;;1.30;;
60318;SDS011;46163;52.306;5.634;2023-07-24T14:22:21;1.33;;;1.33;;
60318;SDS011;46163;52.306;5.634;2023-07-24T14:24:47;1.45;;;1.35;;
60318;SDS011;46163;52.306;5.634;2023-07-24T14:27:13;2.20;;;1.40;;
60318;SDS011;46163;52.306;5.634;2023-07-24T14:29:39;1.95;;;1.48;;
60318;SDS011;46163;52.306;5.634;2023-07-24T14:32:10;2.25;;;1.30;;
60318;SDS011;46163;52.306;5.634;2023-07-24T14:34:35;2.25;;;1.42;;
60318;SDS011;46163;52.306;5.634;2023-07-24T14:37:00;1.80;;;1.60;;
60318;SDS011;46163;52.306;5.634;2023-07-24T14:39:26;4.45;;;1.88;;
60318;SDS011;46163;52.306;5.634;2023-07-24T14:41:51;2.75;;;1.77;;
60318;SDS011;46163;52.306;5.634;2023-07-24T14:44:17;1.63;;;1.45;;
60318;SDS011;46163;52.306;5.634;2023-07-24T14:46:42;2.65;;;1.65;;
60318;SDS011;46163;52.306;5.634;2023-07-24T14:49:10;1.58;;;1.35;;
60318;SDS011;46163;52.306;5.634;2023-07-24T14:51:40;6.20;;;1.70;;
60318;SDS011;46163;52.306;5.634;2023-07-24T14:59:04;3.63;;;1.92;;
60318;SDS011;46163;52.306;5.634;2023-07-24T15:01:29;2.05;;;1.58;;
60318;SDS011;46163;52.306;5.634;2023-07-24T15:04:00;7.05;;;1.88;;
60318;SDS011;46163;52.306;5.634;2023-07-24T15:06:28;2.67;;;1.60;;
60318;SDS011;46163;52.306;5.634;2023-07-24T15:08:57;2.45;;;1.55;;
60318;SDS011;46163;52.306;5.634;2023-07-24T15:11:25;1.42;;;1.33;;